sensor_id;sensor_type;location;lat;lon;timestamp;temperature;humidity
4962;DHT22;2496;52.468;13.342;2023-04-24T00:01:15;12.30;99.90
4962;DHT22;2496;52.468;13.342;2023-04-24T00:03:44;12.30;99.90
4962;DHT22;2496;52.468;13.342;2023-04-24T00:06:10;12.30;99.90
4962;DHT22;2496;52.468;13.342;2023-04-24T00:08:38;12.30;99.90
4962;DHT22;2496;52.468;13.342;2023-04-24T00:11:05;12.20;99.90
4962;DHT22;2496;52.468;13.342;2023-04-24T00:13:32;12.20;99.90
4962;DHT22;2496;52.468;13.342;2023-04-24T00:15:59;12.20;99.90
4962;DHT22;2496;52.468;13.342;2023-04-24T00:18:26;12.20;99.90
4962;DHT22;2496;52.468;13.342;2023-04-24T00:20:54;12.20;99.90
4962;DHT22;2496;52.468;13.342;2023-04-24T00:23:21;12.20;99.90
4962;DHT22;2496;52.468;13.342;2023-04-24T00:25:48;12.10;99.90
4962;DHT22;2496;52.468;13.342;2023-04-24T00:28:15;12.20;99.90
4962;DHT22;2496;52.468;13.342;2023-04-24T00:30:42;12.10;99.90
4962;DHT22;2496;52.468;13.342;2023-04-24T00:33:09;12.10;99.90
4962;DHT22;2496;52.468;13.342;2023-04-24T00:35:36;12.10;99.90
4962;DHT22;2496;52.468;13.342;2023-04-24T00:38:05;12.10;99.90
4962;DHT22;2496;52.468;13.342;2023-04-24T00:40:32;12.10;99.90
4962;DHT22;2496;52.468;13.342;2023-04-24T00:43:00;12.10;99.90
4962;DHT22;2496;52.468;13.342;2023-04-24T00:45:27;12.10;99.90
4962;DHT22;2496;52.468;13.342;2023-04-24T00:47:57;12.10;99.90
4962;DHT22;2496;52.468;13.342;2023-04-24T00:50:24;12.10;99.90
4962;DHT22;2496;52.468;13.342;2023-04-24T00:52:52;12.10;99.90
4962;DHT22;2496;52.468;13.342;2023-04-24T00:55:21;12.10;99.90
4962;DHT22;2496;52.468;13.342;2023-04-24T00:57:49;12.00;99.90
4962;DHT22;2496;52.468;13.342;2023-04-24T01:00:17;12.00;99.90
4962;DHT22;2496;52.468;13.342;2023-04-24T01:02:46;12.00;99.90
4962;DHT22;2496;52.468;13.342;2023-04-24T01:05:14;12.00;99.90
4962;DHT22;2496;52.468;13.342;2023-04-24T01:07:44;12.00;99.90
4962;DHT22;2496;52.468;13.342;2023-04-24T01:10:15;12.00;99.90
4962;DHT22;2496;52.468;13.342;2023-04-24T01:12:45;12.00;99.90
4962;DHT22;2496;52.468;13.342;2023-04-24T01:15:12;12.00;99.90
4962;DHT22;2496;52.468;13.342;2023-04-24T01:17:39;12.00;99.90
4962;DHT22;2496;52.468;13.342;2023-04-24T01:20:07;12.10;99.90
4962;DHT22;2496;52.468;13.342;2023-04-24T01:22:36;12.00;99.90
4962;DHT22;2496;52.468;13.342;2023-04-24T01:25:04;12.00;99.90
4962;DHT22;2496;52.468;13.342;2023-04-24T01:27:32;12.00;99.90
4962;DHT22;2496;52.468;13.342;2023-04-24T01:30:00;12.00;99.90
4962;DHT22;2496;52.468;13.342;2023-04-24T01:32:28;12.00;99.90
4962;DHT22;2496;52.468;13.342;2023-04-24T01:34:55;12.10;99.90
4962;DHT22;2496;52.468;13.342;2023-04-24T01:37:23;12.10;99.90
4962;DHT22;2496;52.468;13.342;2023-04-24T01:39:51;12.00;99.90
4962;DHT22;2496;52.468;13.342;2023-04-24T01:42:20;12.00;99.90
4962;DHT22;2496;52.468;13.342;2023-04-24T01:44:48;12.00;99.90
4962;DHT22;2496;52.468;13.342;2023-04-24T01:47:17;12.00;99.90
4962;DHT22;2496;52.468;13.342;2023-04-24T01:49:45;12.00;99.90
4962;DHT22;2496;52.468;13.342;2023-04-24T01:52:13;12.00;99.90
4962;DHT22;2496;52.468;13.342;2023-04-24T01:54:40;12.00;99.90
4962;DHT22;2496;52.468;13.342;2023-04-24T01:57:09;12.00;99.90
4962;DHT22;2496;52.468;13.342;2023-04-24T01:59:37;12.00;99.90
4962;DHT22;2496;52.468;13.342;2023-04-24T02:02:04;12.00;99.90
4962;DHT22;2496;52.468;13.342;2023-04-24T02:04:31;12.00;99.90
4962;DHT22;2496;52.468;13.342;2023-04-24T02:06:59;12.00;99.90
4962;DHT22;2496;52.468;13.342;2023-04-24T02:09:26;11.90;99.90
4962;DHT22;2496;52.468;13.342;2023-04-24T02:11:53;11.90;99.90
4962;DHT22;2496;52.468;13.342;2023-04-24T02:14:23;11.90;99.90
4962;DHT22;2496;52.468;13.342;2023-04-24T02:16:50;11.90;99.90
4962;DHT22;2496;52.468;13.342;2023-04-24T02:19:19;11.90;99.90
4962;DHT22;2496;52.468;13.342;2023-04-24T02:21:46;11.90;99.90
4962;DHT22;2496;52.468;13.342;2023-04-24T02:24:13;11.90;99.90
4962;DHT22;2496;52.468;13.342;2023-04-24T02:26:41;11.90;99.90
4962;DHT22;2496;52.468;13.342;2023-04-24T02:29:08;11.90;99.90
4962;DHT22;2496;52.468;13.342;2023-04-24T02:31:37;11.90;99.90
4962;DHT22;2496;52.468;13.342;2023-04-24T02:34:04;11.90;99.90
4962;DHT22;2496;52.468;13.342;2023-04-24T02:36:31;12.00;99.90
4962;DHT22;2496;52.468;13.342;2023-04-24T02:38:58;11.90;99.90
4962;DHT22;2496;52.468;13.342;2023-04-24T02:41:26;11.90;99.90
4962;DHT22;2496;52.468;13.342;2023-04-24T02:43:58;11.90;99.90
4962;DHT22;2496;52.468;13.342;2023-04-24T02:46:26;11.80;99.90
4962;DHT22;2496;52.468;13.342;2023-04-24T02:48:54;11.80;99.90
4962;DHT22;2496;52.468;13.342;2023-04-24T02:51:22;11.80;99.90
4962;DHT22;2496;52.468;13.342;2023-04-24T02:53:49;11.80;99.90
4962;DHT22;2496;52.468;13.342;2023-04-24T02:56:16;11.80;99.90
4962;DHT22;2496;52.468;13.342;2023-04-24T02:58:43;11.80;99.90
4962;DHT22;2496;52.468;13.342;2023-04-24T03:01:10;11.80;99.90
4962;DHT22;2496;52.468;13.342;2023-04-24T03:03:38;11.80;99.90
4962;DHT22;2496;52.468;13.342;2023-04-24T03:06:06;11.80;99.90
4962;DHT22;2496;52.468;13.342;2023-04-24T03:08:34;11.80;99.90
4962;DHT22;2496;52.468;13.342;2023-04-24T03:11:02;11.80;99.90
4962;DHT22;2496;52.468;13.342;2023-04-24T03:13:29;11.80;99.90
4962;DHT22;2496;52.468;13.342;2023-04-24T03:15:56;11.80;99.90
4962;DHT22;2496;52.468;13.342;2023-04-24T03:18:23;11.90;99.90
4962;DHT22;2496;52.468;13.342;2023-04-24T03:20:51;11.90;99.90
4962;DHT22;2496;52.468;13.342;2023-04-24T03:23:19;11.90;99.90
4962;DHT22;2496;52.468;13.342;2023-04-24T03:25:46;12.00;99.90
4962;DHT22;2496;52.468;13.342;2023-04-24T03:28:14;12.00;99.90
4962;DHT22;2496;52.468;13.342;2023-04-24T03:30:41;12.00;99.90
4962;DHT22;2496;52.468;13.342;2023-04-24T03:33:08;12.00;99.90
4962;DHT22;2496;52.468;13.342;2023-04-24T03:35:36;12.00;99.90
4962;DHT22;2496;52.468;13.342;2023-04-24T03:38:03;12.00;99.90
4962;DHT22;2496;52.468;13.342;2023-04-24T03:40:32;12.00;99.90
4962;DHT22;2496;52.468;13.342;2023-04-24T03:43:00;12.10;99.90
4962;DHT22;2496;52.468;13.342;2023-04-24T03:45:27;12.00;99.90
4962;DHT22;2496;52.468;13.342;2023-04-24T03:47:54;12.10;99.90
4962;DHT22;2496;52.468;13.342;2023-04-24T03:50:21;12.10;99.90
4962;DHT22;2496;52.468;13.342;2023-04-24T03:52:49;12.10;99.90
4962;DHT22;2496;52.468;13.342;2023-04-24T03:55:16;12.10;99.90
4962;DHT22;2496;52.468;13.342;2023-04-24T03:57:45;12.10;99.90
4962;DHT22;2496;52.468;13.342;2023-04-24T04:00:12;12.10;99.90
4962;DHT22;2496;52.468;13.342;2023-04-24T04:02:40;12.10;99.90
4962;DHT22;2496;52.468;13.342;2023-04-24T04:05:08;12.10;99.90
4962;DHT22;2496;52.468;13.342;2023-04-24T04:07:35;12.10;99.90
4962;DHT22;2496;52.468;13.342;2023-04-24T04:10:03;12.10;99.90
4962;DHT22;2496;52.468;13.342;2023-04-24T04:12:30;12.10;99.90
4962;DHT22;2496;52.468;13.342;2023-04-24T04:14:59;12.10;99.90
4962;DHT22;2496;52.468;13.342;2023-04-24T04:17:26;12.20;99.90
4962;DHT22;2496;52.468;13.342;2023-04-24T04:19:53;12.20;99.90
4962;DHT22;2496;52.468;13.342;2023-04-24T04:22:20;12.20;99.90
4962;DHT22;2496;52.468;13.342;2023-04-24T04:24:47;12.20;99.90
4962;DHT22;2496;52.468;13.342;2023-04-24T04:27:16;12.20;99.90
4962;DHT22;2496;52.468;13.342;2023-04-24T04:29:44;12.20;99.90
4962;DHT22;2496;52.468;13.342;2023-04-24T04:32:13;12.20;99.90
4962;DHT22;2496;52.468;13.342;2023-04-24T04:34:41;12.20;99.90
4962;DHT22;2496;52.468;13.342;2023-04-24T04:37:08;12.20;99.90
4962;DHT22;2496;52.468;13.342;2023-04-24T04:39:36;12.20;99.90
4962;DHT22;2496;52.468;13.342;2023-04-24T04:42:04;12.30;99.90
4962;DHT22;2496;52.468;13.342;2023-04-24T04:44:32;12.30;99.90
4962;DHT22;2496;52.468;13.342;2023-04-24T04:47:01;12.30;99.90
4962;DHT22;2496;52.468;13.342;2023-04-24T04:49:32;12.30;99.90
4962;DHT22;2496;52.468;13.342;2023-04-24T04:52:00;12.30;99.90
4962;DHT22;2496;52.468;13.342;2023-04-24T04:54:27;12.30;99.90
4962;DHT22;2496;52.468;13.342;2023-04-24T04:56:55;12.30;99.90
4962;DHT22;2496;52.468;13.342;2023-04-24T04:59:23;12.30;99.90
4962;DHT22;2496;52.468;13.342;2023-04-24T05:01:51;12.30;99.90
4962;DHT22;2496;52.468;13.342;2023-04-24T05:04:18;12.40;99.90
4962;DHT22;2496;52.468;13.342;2023-04-24T05:06:46;12.40;99.90
4962;DHT22;2496;52.468;13.342;2023-04-24T05:09:14;12.50;99.90
4962;DHT22;2496;52.468;13.342;2023-04-24T05:11:41;12.50;99.90
4962;DHT22;2496;52.468;13.342;2023-04-24T05:14:09;12.50;99.90
4962;DHT22;2496;52.468;13.342;2023-04-24T05:16:38;12.60;99.90
4962;DHT22;2496;52.468;13.342;2023-04-24T05:19:05;12.60;99.90
4962;DHT22;2496;52.468;13.342;2023-04-24T05:21:32;12.70;99.90
4962;DHT22;2496;52.468;13.342;2023-04-24T05:24:01;12.70;99.90
4962;DHT22;2496;52.468;13.342;2023-04-24T05:26:28;12.80;99.90
4962;DHT22;2496;52.468;13.342;2023-04-24T05:28:55;12.80;99.90
4962;DHT22;2496;52.468;13.342;2023-04-24T05:31:22;12.90;99.90
4962;DHT22;2496;52.468;13.342;2023-04-24T05:33:49;13.00;99.90
4962;DHT22;2496;52.468;13.342;2023-04-24T05:36:16;13.00;99.90
4962;DHT22;2496;52.468;13.342;2023-04-24T05:38:43;13.10;99.90
4962;DHT22;2496;52.468;13.342;2023-04-24T05:41:12;13.10;99.90
4962;DHT22;2496;52.468;13.342;2023-04-24T05:43:39;13.10;99.90
4962;DHT22;2496;52.468;13.342;2023-04-24T05:46:06;13.20;99.90
4962;DHT22;2496;52.468;13.342;2023-04-24T05:48:33;13.20;99.90
4962;DHT22;2496;52.468;13.342;2023-04-24T05:51:00;13.20;99.90
4962;DHT22;2496;52.468;13.342;2023-04-24T05:53:27;13.30;99.90
4962;DHT22;2496;52.468;13.342;2023-04-24T05:55:54;13.30;99.90
4962;DHT22;2496;52.468;13.342;2023-04-24T05:58:22;13.30;99.90
4962;DHT22;2496;52.468;13.342;2023-04-24T06:00:49;13.50;99.90
4962;DHT22;2496;52.468;13.342;2023-04-24T06:03:16;13.70;99.90
4962;DHT22;2496;52.468;13.342;2023-04-24T06:05:43;14.00;99.90
4962;DHT22;2496;52.468;13.342;2023-04-24T06:08:11;14.10;99.90
4962;DHT22;2496;52.468;13.342;2023-04-24T06:10:38;14.20;99.90
4962;DHT22;2496;52.468;13.342;2023-04-24T06:13:05;14.30;99.90
4962;DHT22;2496;52.468;13.342;2023-04-24T06:15:34;14.50;99.90
4962;DHT22;2496;52.468;13.342;2023-04-24T06:18:01;14.50;99.90
4962;DHT22;2496;52.468;13.342;2023-04-24T06:20:28;14.60;99.90
4962;DHT22;2496;52.468;13.342;2023-04-24T06:22:55;14.60;99.90
4962;DHT22;2496;52.468;13.342;2023-04-24T06:25:24;14.60;99.90
4962;DHT22;2496;52.468;13.342;2023-04-24T06:27:51;14.60;99.90
4962;DHT22;2496;52.468;13.342;2023-04-24T06:30:21;14.60;99.90
4962;DHT22;2496;52.468;13.342;2023-04-24T06:32:49;14.80;99.90
4962;DHT22;2496;52.468;13.342;2023-04-24T06:35:16;15.10;99.90
4962;DHT22;2496;52.468;13.342;2023-04-24T06:37:43;15.30;99.90
4962;DHT22;2496;52.468;13.342;2023-04-24T06:40:10;15.50;99.90
4962;DHT22;2496;52.468;13.342;2023-04-24T06:42:38;15.70;99.90
4962;DHT22;2496;52.468;13.342;2023-04-24T06:45:05;15.90;99.90
4962;DHT22;2496;52.468;13.342;2023-04-24T06:47:33;16.00;99.90
4962;DHT22;2496;52.468;13.342;2023-04-24T06:50:01;16.00;99.90
4962;DHT22;2496;52.468;13.342;2023-04-24T06:52:28;16.00;99.90
4962;DHT22;2496;52.468;13.342;2023-04-24T06:55:00;16.00;99.90
4962;DHT22;2496;52.468;13.342;2023-04-24T06:57:27;16.20;99.90
4962;DHT22;2496;52.468;13.342;2023-04-24T06:59:55;16.30;99.90
4962;DHT22;2496;52.468;13.342;2023-04-24T07:02:22;16.30;99.90
4962;DHT22;2496;52.468;13.342;2023-04-24T07:04:49;16.40;99.90
4962;DHT22;2496;52.468;13.342;2023-04-24T07:07:17;16.40;99.90
4962;DHT22;2496;52.468;13.342;2023-04-24T07:09:44;16.30;99.90
4962;DHT22;2496;52.468;13.342;2023-04-24T07:12:11;16.40;99.90
4962;DHT22;2496;52.468;13.342;2023-04-24T07:14:39;16.50;99.90
4962;DHT22;2496;52.468;13.342;2023-04-24T07:17:06;16.60;99.90
4962;DHT22;2496;52.468;13.342;2023-04-24T07:19:35;16.80;99.90
4962;DHT22;2496;52.468;13.342;2023-04-24T07:22:02;16.90;99.90
4962;DHT22;2496;52.468;13.342;2023-04-24T07:24:31;16.90;99.90
4962;DHT22;2496;52.468;13.342;2023-04-24T07:26:58;16.90;99.90
4962;DHT22;2496;52.468;13.342;2023-04-24T07:29:26;16.90;99.90
4962;DHT22;2496;52.468;13.342;2023-04-24T07:31:53;17.00;99.90
4962;DHT22;2496;52.468;13.342;2023-04-24T07:34:21;17.10;99.90
4962;DHT22;2496;52.468;13.342;2023-04-24T07:36:48;17.20;99.90
4962;DHT22;2496;52.468;13.342;2023-04-24T07:39:16;17.30;99.90
4962;DHT22;2496;52.468;13.342;2023-04-24T07:41:44;17.40;99.90
4962;DHT22;2496;52.468;13.342;2023-04-24T07:44:11;17.60;99.90
4962;DHT22;2496;52.468;13.342;2023-04-24T07:46:38;17.70;99.90
4962;DHT22;2496;52.468;13.342;2023-04-24T07:49:05;17.80;99.90
4962;DHT22;2496;52.468;13.342;2023-04-24T07:51:32;18.00;99.90
4962;DHT22;2496;52.468;13.342;2023-04-24T07:54:03;18.20;99.90
4962;DHT22;2496;52.468;13.342;2023-04-24T07:56:31;18.50;99.90
4962;DHT22;2496;52.468;13.342;2023-04-24T07:59:00;18.70;99.90
4962;DHT22;2496;52.468;13.342;2023-04-24T08:01:28;18.90;99.90
4962;DHT22;2496;52.468;13.342;2023-04-24T08:03:55;19.10;99.90
4962;DHT22;2496;52.468;13.342;2023-04-24T08:06:22;19.10;99.90
4962;DHT22;2496;52.468;13.342;2023-04-24T08:08:49;19.20;99.90
4962;DHT22;2496;52.468;13.342;2023-04-24T08:11:17;19.40;99.90
4962;DHT22;2496;52.468;13.342;2023-04-24T08:13:44;19.50;99.90
4962;DHT22;2496;52.468;13.342;2023-04-24T08:16:12;19.50;99.90
4962;DHT22;2496;52.468;13.342;2023-04-24T08:18:40;19.30;99.70
4962;DHT22;2496;52.468;13.342;2023-04-24T08:21:07;19.00;99.50
4962;DHT22;2496;52.468;13.342;2023-04-24T08:23:34;18.80;99.90
4962;DHT22;2496;52.468;13.342;2023-04-24T08:26:01;18.60;99.50
4962;DHT22;2496;52.468;13.342;2023-04-24T08:28:28;18.50;99.90
4962;DHT22;2496;52.468;13.342;2023-04-24T08:30:56;18.40;99.10
4962;DHT22;2496;52.468;13.342;2023-04-24T08:33:24;18.50;99.10
4962;DHT22;2496;52.468;13.342;2023-04-24T08:35:52;18.70;97.90
4962;DHT22;2496;52.468;13.342;2023-04-24T08:38:19;18.70;98.00
4962;DHT22;2496;52.468;13.342;2023-04-24T08:40:47;18.60;98.20
4962;DHT22;2496;52.468;13.342;2023-04-24T08:43:16;18.50;98.10
4962;DHT22;2496;52.468;13.342;2023-04-24T08:45:43;18.40;98.10
4962;DHT22;2496;52.468;13.342;2023-04-24T08:48:11;18.20;98.60
4962;DHT22;2496;52.468;13.342;2023-04-24T08:50:40;18.20;99.00
4962;DHT22;2496;52.468;13.342;2023-04-24T08:53:08;18.60;99.00
4962;DHT22;2496;52.468;13.342;2023-04-24T08:55:36;18.70;98.80
4962;DHT22;2496;52.468;13.342;2023-04-24T08:58:04;18.90;98.70
4962;DHT22;2496;52.468;13.342;2023-04-24T09:00:31;18.90;98.70
4962;DHT22;2496;52.468;13.342;2023-04-24T09:03:00;18.70;99.00
4962;DHT22;2496;52.468;13.342;2023-04-24T09:05:28;18.50;99.20
4962;DHT22;2496;52.468;13.342;2023-04-24T09:07:57;18.30;99.50
4962;DHT22;2496;52.468;13.342;2023-04-24T09:10:25;18.20;99.90
4962;DHT22;2496;52.468;13.342;2023-04-24T09:12:54;18.10;99.90
4962;DHT22;2496;52.468;13.342;2023-04-24T09:15:22;18.10;99.80
4962;DHT22;2496;52.468;13.342;2023-04-24T09:17:49;18.10;99.90
4962;DHT22;2496;52.468;13.342;2023-04-24T09:20:16;18.00;99.90
4962;DHT22;2496;52.468;13.342;2023-04-24T09:22:45;18.00;99.90
4962;DHT22;2496;52.468;13.342;2023-04-24T09:25:13;17.90;99.90
4962;DHT22;2496;52.468;13.342;2023-04-24T09:27:44;17.90;99.90
4962;DHT22;2496;52.468;13.342;2023-04-24T09:30:13;18.00;99.90
4962;DHT22;2496;52.468;13.342;2023-04-24T09:32:40;18.20;99.90
4962;DHT22;2496;52.468;13.342;2023-04-24T09:35:09;18.20;99.90
4962;DHT22;2496;52.468;13.342;2023-04-24T09:37:37;18.20;99.90
4962;DHT22;2496;52.468;13.342;2023-04-24T09:40:14;18.10;99.90
4962;DHT22;2496;52.468;13.342;2023-04-24T09:42:45;17.90;99.90
4962;DHT22;2496;52.468;13.342;2023-04-24T09:45:13;17.90;99.90
4962;DHT22;2496;52.468;13.342;2023-04-24T09:47:40;17.80;99.90
4962;DHT22;2496;52.468;13.342;2023-04-24T09:50:12;17.70;99.90
4962;DHT22;2496;52.468;13.342;2023-04-24T09:52:41;17.80;99.90
4962;DHT22;2496;52.468;13.342;2023-04-24T09:55:16;17.80;99.90
4962;DHT22;2496;52.468;13.342;2023-04-24T09:57:48;17.80;99.90
4962;DHT22;2496;52.468;13.342;2023-04-24T10:00:19;17.90;99.90
4962;DHT22;2496;52.468;13.342;2023-04-24T10:02:50;18.10;99.90
4962;DHT22;2496;52.468;13.342;2023-04-24T10:05:18;18.10;99.90
4962;DHT22;2496;52.468;13.342;2023-04-24T10:07:45;18.10;99.90
4962;DHT22;2496;52.468;13.342;2023-04-24T10:10:13;18.20;99.90
4962;DHT22;2496;52.468;13.342;2023-04-24T10:12:42;18.20;99.90
4962;DHT22;2496;52.468;13.342;2023-04-24T10:15:10;18.30;99.90
4962;DHT22;2496;52.468;13.342;2023-04-24T10:17:39;18.40;99.90
4962;DHT22;2496;52.468;13.342;2023-04-24T10:20:07;18.40;99.80
4962;DHT22;2496;52.468;13.342;2023-04-24T10:22:36;18.30;99.60
4962;DHT22;2496;52.468;13.342;2023-04-24T10:25:04;18.30;99.80
4962;DHT22;2496;52.468;13.342;2023-04-24T10:27:34;18.30;99.80
4962;DHT22;2496;52.468;13.342;2023-04-24T10:30:02;18.20;99.90
4962;DHT22;2496;52.468;13.342;2023-04-24T10:32:29;18.20;99.90
4962;DHT22;2496;52.468;13.342;2023-04-24T10:34:57;18.00;99.90
4962;DHT22;2496;52.468;13.342;2023-04-24T10:37:26;17.90;99.90
4962;DHT22;2496;52.468;13.342;2023-04-24T10:39:53;17.80;99.90
4962;DHT22;2496;52.468;13.342;2023-04-24T10:42:20;17.70;99.90
4962;DHT22;2496;52.468;13.342;2023-04-24T10:44:49;17.50;99.90
4962;DHT22;2496;52.468;13.342;2023-04-24T10:47:16;17.30;99.90
4962;DHT22;2496;52.468;13.342;2023-04-24T10:49:43;17.20;99.90
4962;DHT22;2496;52.468;13.342;2023-04-24T10:52:10;17.10;99.90
4962;DHT22;2496;52.468;13.342;2023-04-24T10:54:42;17.10;99.90
4962;DHT22;2496;52.468;13.342;2023-04-24T10:57:27;17.00;99.90
4962;DHT22;2496;52.468;13.342;2023-04-24T11:00:18;16.90;99.90
4962;DHT22;2496;52.468;13.342;2023-04-24T11:02:46;17.00;99.90
4962;DHT22;2496;52.468;13.342;2023-04-24T11:05:19;17.20;99.90
4962;DHT22;2496;52.468;13.342;2023-04-24T11:08:11;17.50;99.90
4962;DHT22;2496;52.468;13.342;2023-04-24T11:10:40;17.80;99.90
4962;DHT22;2496;52.468;13.342;2023-04-24T11:13:07;18.00;99.90
4962;DHT22;2496;52.468;13.342;2023-04-24T11:15:41;18.00;99.90
4962;DHT22;2496;52.468;13.342;2023-04-24T11:18:13;18.10;99.90
4962;DHT22;2496;52.468;13.342;2023-04-24T11:20:42;18.10;99.90
4962;DHT22;2496;52.468;13.342;2023-04-24T11:23:12;18.10;99.90
4962;DHT22;2496;52.468;13.342;2023-04-24T11:25:39;18.10;99.90
4962;DHT22;2496;52.468;13.342;2023-04-24T11:28:07;18.00;99.90
4962;DHT22;2496;52.468;13.342;2023-04-24T11:30:42;17.90;99.90
4962;DHT22;2496;52.468;13.342;2023-04-24T11:33:09;17.80;99.90
4962;DHT22;2496;52.468;13.342;2023-04-24T11:35:40;17.90;99.90
4962;DHT22;2496;52.468;13.342;2023-04-24T11:38:07;17.90;99.90
4962;DHT22;2496;52.468;13.342;2023-04-24T11:40:34;17.80;99.90
4962;DHT22;2496;52.468;13.342;2023-04-24T11:43:01;17.70;99.90
4962;DHT22;2496;52.468;13.342;2023-04-24T11:45:31;17.60;99.90
4962;DHT22;2496;52.468;13.342;2023-04-24T11:47:59;17.50;99.90
4962;DHT22;2496;52.468;13.342;2023-04-24T11:50:27;17.40;99.90
4962;DHT22;2496;52.468;13.342;2023-04-24T11:52:55;17.40;99.90
4962;DHT22;2496;52.468;13.342;2023-04-24T11:55:27;17.30;99.90
4962;DHT22;2496;52.468;13.342;2023-04-24T11:57:56;17.20;99.90
4962;DHT22;2496;52.468;13.342;2023-04-24T12:00:24;17.20;99.90
4962;DHT22;2496;52.468;13.342;2023-04-24T12:03:08;17.30;99.90
4962;DHT22;2496;52.468;13.342;2023-04-24T12:05:35;17.30;99.90
4962;DHT22;2496;52.468;13.342;2023-04-24T12:08:02;17.30;99.90
4962;DHT22;2496;52.468;13.342;2023-04-24T12:10:30;17.30;99.90
4962;DHT22;2496;52.468;13.342;2023-04-24T12:12:59;17.30;99.90
4962;DHT22;2496;52.468;13.342;2023-04-24T12:15:27;17.30;99.90
4962;DHT22;2496;52.468;13.342;2023-04-24T12:17:55;17.60;99.90
4962;DHT22;2496;52.468;13.342;2023-04-24T12:20:27;17.90;99.90
4962;DHT22;2496;52.468;13.342;2023-04-24T12:22:55;18.10;99.90
4962;DHT22;2496;52.468;13.342;2023-04-24T12:25:23;18.10;99.90
4962;DHT22;2496;52.468;13.342;2023-04-24T12:27:53;18.20;97.80
4962;DHT22;2496;52.468;13.342;2023-04-24T12:30:21;18.20;95.50
4962;DHT22;2496;52.468;13.342;2023-04-24T12:32:52;18.30;94.30
4962;DHT22;2496;52.468;13.342;2023-04-24T12:35:22;18.20;94.30
4962;DHT22;2496;52.468;13.342;2023-04-24T12:37:51;18.30;94.20
4962;DHT22;2496;52.468;13.342;2023-04-24T12:40:18;18.30;94.00
4962;DHT22;2496;52.468;13.342;2023-04-24T12:42:47;18.20;92.70
4962;DHT22;2496;52.468;13.342;2023-04-24T12:45:15;18.30;92.40
4962;DHT22;2496;52.468;13.342;2023-04-24T12:47:44;18.40;91.90
4962;DHT22;2496;52.468;13.342;2023-04-24T12:50:13;18.50;91.50
4962;DHT22;2496;52.468;13.342;2023-04-24T12:52:41;18.50;90.80
4962;DHT22;2496;52.468;13.342;2023-04-24T12:55:10;18.50;90.70
4962;DHT22;2496;52.468;13.342;2023-04-24T12:57:39;18.40;90.60
4962;DHT22;2496;52.468;13.342;2023-04-24T13:00:08;18.40;90.60
4962;DHT22;2496;52.468;13.342;2023-04-24T13:02:35;18.50;89.60
4962;DHT22;2496;52.468;13.342;2023-04-24T13:05:03;18.70;89.40
4962;DHT22;2496;52.468;13.342;2023-04-24T13:07:30;18.70;89.40
4962;DHT22;2496;52.468;13.342;2023-04-24T13:09:57;18.70;88.10
4962;DHT22;2496;52.468;13.342;2023-04-24T13:12:25;18.80;87.50
4962;DHT22;2496;52.468;13.342;2023-04-24T13:14:53;19.00;86.80
4962;DHT22;2496;52.468;13.342;2023-04-24T13:17:20;19.00;87.20
4962;DHT22;2496;52.468;13.342;2023-04-24T13:19:50;19.10;87.30
4962;DHT22;2496;52.468;13.342;2023-04-24T13:22:17;19.10;86.40
4962;DHT22;2496;52.468;13.342;2023-04-24T13:24:45;19.00;86.30
4962;DHT22;2496;52.468;13.342;2023-04-24T13:27:14;18.90;85.80
4962;DHT22;2496;52.468;13.342;2023-04-24T13:29:42;18.70;85.20
4962;DHT22;2496;52.468;13.342;2023-04-24T13:32:09;18.70;84.80
4962;DHT22;2496;52.468;13.342;2023-04-24T13:34:36;18.70;84.10
4962;DHT22;2496;52.468;13.342;2023-04-24T13:37:04;18.70;82.10
4962;DHT22;2496;52.468;13.342;2023-04-24T13:39:31;18.70;81.70
4962;DHT22;2496;52.468;13.342;2023-04-24T13:41:58;18.60;82.60
4962;DHT22;2496;52.468;13.342;2023-04-24T13:44:26;18.60;83.20
4962;DHT22;2496;52.468;13.342;2023-04-24T13:46:55;18.60;83.60
4962;DHT22;2496;52.468;13.342;2023-04-24T13:49:23;18.60;82.80
4962;DHT22;2496;52.468;13.342;2023-04-24T13:51:51;18.50;81.40
4962;DHT22;2496;52.468;13.342;2023-04-24T13:54:18;18.40;81.30
4962;DHT22;2496;52.468;13.342;2023-04-24T13:56:45;18.30;81.70
4962;DHT22;2496;52.468;13.342;2023-04-24T13:59:13;18.40;82.40
4962;DHT22;2496;52.468;13.342;2023-04-24T14:01:40;18.40;82.70
4962;DHT22;2496;52.468;13.342;2023-04-24T14:04:08;18.30;82.70
4962;DHT22;2496;52.468;13.342;2023-04-24T14:06:35;18.30;82.90
4962;DHT22;2496;52.468;13.342;2023-04-24T14:09:02;18.30;82.70
4962;DHT22;2496;52.468;13.342;2023-04-24T14:11:30;18.30;82.60
4962;DHT22;2496;52.468;13.342;2023-04-24T14:13:57;18.40;82.30
4962;DHT22;2496;52.468;13.342;2023-04-24T14:16:24;18.40;82.30
4962;DHT22;2496;52.468;13.342;2023-04-24T14:18:51;18.40;81.60
4962;DHT22;2496;52.468;13.342;2023-04-24T14:21:19;18.50;81.60
4962;DHT22;2496;52.468;13.342;2023-04-24T14:23:46;18.40;81.40
4962;DHT22;2496;52.468;13.342;2023-04-24T14:26:13;18.40;80.50
4962;DHT22;2496;52.468;13.342;2023-04-24T14:28:40;18.30;79.30
4962;DHT22;2496;52.468;13.342;2023-04-24T14:31:07;18.30;80.30
4962;DHT22;2496;52.468;13.342;2023-04-24T14:33:35;18.20;79.90
4962;DHT22;2496;52.468;13.342;2023-04-24T14:36:02;18.10;80.00
4962;DHT22;2496;52.468;13.342;2023-04-24T14:38:32;18.00;80.80
4962;DHT22;2496;52.468;13.342;2023-04-24T14:40:59;17.90;81.90
4962;DHT22;2496;52.468;13.342;2023-04-24T14:43:26;17.90;81.80
4962;DHT22;2496;52.468;13.342;2023-04-24T14:45:54;18.00;82.40
4962;DHT22;2496;52.468;13.342;2023-04-24T14:48:21;18.10;81.00
4962;DHT22;2496;52.468;13.342;2023-04-24T14:50:48;18.10;81.30
4962;DHT22;2496;52.468;13.342;2023-04-24T14:53:15;18.10;80.80
4962;DHT22;2496;52.468;13.342;2023-04-24T14:55:43;18.00;81.40
4962;DHT22;2496;52.468;13.342;2023-04-24T14:58:10;17.90;80.70
4962;DHT22;2496;52.468;13.342;2023-04-24T15:00:37;17.80;81.20
4962;DHT22;2496;52.468;13.342;2023-04-24T15:03:05;17.80;82.10
4962;DHT22;2496;52.468;13.342;2023-04-24T15:05:32;17.70;82.50
4962;DHT22;2496;52.468;13.342;2023-04-24T15:08:00;17.80;83.00
4962;DHT22;2496;52.468;13.342;2023-04-24T15:10:27;17.80;82.80
4962;DHT22;2496;52.468;13.342;2023-04-24T15:12:56;17.80;82.60
4962;DHT22;2496;52.468;13.342;2023-04-24T15:15:23;17.90;83.10
4962;DHT22;2496;52.468;13.342;2023-04-24T15:17:50;17.90;83.50
4962;DHT22;2496;52.468;13.342;2023-04-24T15:20:17;17.90;82.60
4962;DHT22;2496;52.468;13.342;2023-04-24T15:22:45;18.00;81.70
4962;DHT22;2496;52.468;13.342;2023-04-24T15:25:12;18.00;80.50
4962;DHT22;2496;52.468;13.342;2023-04-24T15:27:40;17.90;80.20
4962;DHT22;2496;52.468;13.342;2023-04-24T15:30:10;17.90;80.80
4962;DHT22;2496;52.468;13.342;2023-04-24T15:32:37;17.70;81.60
4962;DHT22;2496;52.468;13.342;2023-04-24T15:35:05;17.40;82.10
4962;DHT22;2496;52.468;13.342;2023-04-24T15:37:32;17.20;82.70
4962;DHT22;2496;52.468;13.342;2023-04-24T15:40:00;17.10;83.20
4962;DHT22;2496;52.468;13.342;2023-04-24T15:42:29;17.00;83.20
4962;DHT22;2496;52.468;13.342;2023-04-24T15:44:56;16.90;83.40
4962;DHT22;2496;52.468;13.342;2023-04-24T15:47:25;16.80;83.70
4962;DHT22;2496;52.468;13.342;2023-04-24T15:49:52;16.70;84.00